sensor_id;sensor_type;location;lat;lon;timestamp;pressure;altitude;pressure_sealevel;temperature;humidity
6090;BME280;3073;42.660;23.316;2022-07-29T00:00:11;94681.91;;;20.21;100.00
6090;BME280;3073;42.660;23.316;2022-07-29T00:02:38;94688.25;;;20.15;100.00
6090;BME280;3073;42.660;23.316;2022-07-29T00:05:08;94690.16;;;20.23;100.00
6090;BME280;3073;42.660;23.316;2022-07-29T00:07:35;94706.22;;;19.97;100.00
6090;BME280;3073;42.660;23.316;2022-07-29T00:10:04;94714.63;;;19.62;100.00
6090;BME280;3073;42.660;23.316;2022-07-29T00:12:33;94715.44;;;19.90;100.00
6090;BME280;3073;42.660;23.316;2022-07-29T00:14:59;94715.03;;;19.96;100.00
6090;BME280;3073;42.660;23.316;2022-07-29T00:17:26;94717.44;;;20.07;100.00
6090;BME280;3073;42.660;23.316;2022-07-29T00:19:53;94718.97;;;19.94;100.00
6090;BME280;3073;42.660;23.316;2022-07-29T00:22:20;94712.44;;;19.96;100.00
6090;BME280;3073;42.660;23.316;2022-07-29T00:24:48;94714.19;;;19.87;100.00
6090;BME280;3073;42.660;23.316;2022-07-29T00:27:15;94710.16;;;19.81;100.00
6090;BME280;3073;42.660;23.316;2022-07-29T00:29:43;94706.28;;;19.65;100.00
6090;BME280;3073;42.660;23.316;2022-07-29T00:32:10;94704.50;;;19.33;100.00
6090;BME280;3073;42.660;23.316;2022-07-29T00:34:37;94701.94;;;19.33;100.00
6090;BME280;3073;42.660;23.316;2022-07-29T00:37:21;94713.66;;;19.58;100.00
6090;BME280;3073;42.660;23.316;2022-07-29T00:39:48;94707.25;;;19.69;100.00
6090;BME280;3073;42.660;23.316;2022-07-29T00:42:15;94710.81;;;19.73;100.00
6090;BME280;3073;42.660;23.316;2022-07-29T00:44:44;94712.19;;;19.38;100.00
6090;BME280;3073;42.660;23.316;2022-07-29T00:47:11;94709.81;;;19.10;100.00
6090;BME280;3073;42.660;23.316;2022-07-29T00:49:39;94718.38;;;19.24;100.00
6090;BME280;3073;42.660;23.316;2022-07-29T00:52:08;94721.78;;;19.38;100.00
6090;BME280;3073;42.660;23.316;2022-07-29T00:54:37;94712.81;;;19.49;100.00
6090;BME280;3073;42.660;23.316;2022-07-29T00:57:06;94724.03;;;19.58;100.00
6090;BME280;3073;42.660;23.316;2022-07-29T00:59:33;94716.75;;;19.60;100.00
6090;BME280;3073;42.660;23.316;2022-07-29T01:02:02;94717.00;;;19.45;100.00
6090;BME280;3073;42.660;23.316;2022-07-29T01:04:29;94715.91;;;19.51;100.00
6090;BME280;3073;42.660;23.316;2022-07-29T01:06:57;94715.50;;;19.44;100.00
6090;BME280;3073;42.660;23.316;2022-07-29T01:09:26;94709.81;;;19.42;100.00
6090;BME280;3073;42.660;23.316;2022-07-29T01:11:54;94705.09;;;19.30;100.00
6090;BME280;3073;42.660;23.316;2022-07-29T01:14:21;94703.88;;;19.41;100.00
6090;BME280;3073;42.660;23.316;2022-07-29T01:16:52;94704.63;;;19.42;100.00
6090;BME280;3073;42.660;23.316;2022-07-29T01:19:39;94703.59;;;19.43;100.00
6090;BME280;3073;42.660;23.316;2022-07-29T01:22:24;94695.38;;;19.41;100.00
6090;BME280;3073;42.660;23.316;2022-07-29T01:30:54;94690.59;;;19.48;100.00
6090;BME280;3073;42.660;23.316;2022-07-29T01:33:24;94686.16;;;19.48;100.00
6090;BME280;3073;42.660;23.316;2022-07-29T01:36:12;94687.38;;;19.37;100.00
6090;BME280;3073;42.660;23.316;2022-07-29T01:38:41;94685.75;;;19.41;100.00
6090;BME280;3073;42.660;23.316;2022-07-29T01:41:12;94688.28;;;19.46;100.00
6090;BME280;3073;42.660;23.316;2022-07-29T01:43:44;94684.84;;;19.51;100.00
6090;BME280;3073;42.660;23.316;2022-07-29T01:46:21;94690.38;;;19.58;100.00
6090;BME280;3073;42.660;23.316;2022-07-29T01:48:55;94688.00;;;19.48;100.00
6090;BME280;3073;42.660;23.316;2022-07-29T01:51:26;94690.38;;;19.12;100.00
6090;BME280;3073;42.660;23.316;2022-07-29T01:54:02;94687.38;;;19.05;100.00
6090;BME280;3073;42.660;23.316;2022-07-29T01:56:31;94683.38;;;19.13;100.00
6090;BME280;3073;42.660;23.316;2022-07-29T01:58:59;94678.78;;;19.10;100.00
6090;BME280;3073;42.660;23.316;2022-07-29T02:01:31;94679.97;;;19.17;100.00
6090;BME280;3073;42.660;23.316;2022-07-29T02:04:00;94674.41;;;19.24;100.00
6090;BME280;3073;42.660;23.316;2022-07-29T02:06:31;94674.69;;;19.22;100.00
6090;BME280;3073;42.660;23.316;2022-07-29T02:08:58;94677.00;;;19.24;100.00
6090;BME280;3073;42.660;23.316;2022-07-29T02:11:26;94670.75;;;19.25;100.00
6090;BME280;3073;42.660;23.316;2022-07-29T02:13:54;94667.78;;;19.18;100.00
6090;BME280;3073;42.660;23.316;2022-07-29T02:16:23;94665.94;;;19.05;100.00
6090;BME280;3073;42.660;23.316;2022-07-29T02:18:56;94663.47;;;19.13;100.00
6090;BME280;3073;42.660;23.316;2022-07-29T02:21:25;94661.31;;;19.01;100.00
6090;BME280;3073;42.660;23.316;2022-07-29T02:23:53;94666.81;;;19.14;100.00
6090;BME280;3073;42.660;23.316;2022-07-29T02:26:23;94662.63;;;19.18;100.00
6090;BME280;3073;42.660;23.316;2022-07-29T02:28:52;94667.19;;;19.07;100.00
6090;BME280;3073;42.660;23.316;2022-07-29T02:31:23;94660.59;;;19.15;100.00
6090;BME280;3073;42.660;23.316;2022-07-29T02:33:51;94657.44;;;19.18;100.00
6090;BME280;3073;42.660;23.316;2022-07-29T02:36:22;94651.69;;;19.21;100.00
6090;BME280;3073;42.660;23.316;2022-07-29T02:38:50;94644.41;;;19.23;100.00
6090;BME280;3073;42.660;23.316;2022-07-29T02:41:20;94647.38;;;19.30;100.00
6090;BME280;3073;42.660;23.316;2022-07-29T02:43:54;94634.34;;;19.35;100.00
6090;BME280;3073;42.660;23.316;2022-07-29T02:46:29;94633.25;;;19.41;100.00
6090;BME280;3073;42.660;23.316;2022-07-29T02:49:01;94633.66;;;19.48;100.00
6090;BME280;3073;42.660;23.316;2022-07-29T02:51:39;94630.38;;;19.56;100.00
6090;BME280;3073;42.660;23.316;2022-07-29T02:54:08;94626.91;;;19.61;100.00
6090;BME280;3073;42.660;23.316;2022-07-29T02:56:39;94633.06;;;19.65;100.00
6090;BME280;3073;42.660;23.316;2022-07-29T02:59:10;94637.09;;;19.71;100.00
6090;BME280;3073;42.660;23.316;2022-07-29T03:01:41;94635.81;;;19.68;100.00
6090;BME280;3073;42.660;23.316;2022-07-29T03:04:11;94631.03;;;19.75;100.00
6090;BME280;3073;42.660;23.316;2022-07-29T03:06:41;94631.31;;;19.74;100.00
6090;BME280;3073;42.660;23.316;2022-07-29T03:09:10;94633.22;;;19.68;100.00
6090;BME280;3073;42.660;23.316;2022-07-29T03:11:38;94638.91;;;19.70;100.00
6090;BME280;3073;42.660;23.316;2022-07-29T03:14:06;94639.47;;;19.53;100.00
6090;BME280;3073;42.660;23.316;2022-07-29T03:16:35;94647.91;;;19.59;100.00
6090;BME280;3073;42.660;23.316;2022-07-29T03:19:03;94651.25;;;19.60;100.00
6090;BME280;3073;42.660;23.316;2022-07-29T03:21:30;94651.47;;;19.49;100.00
6090;BME280;3073;42.660;23.316;2022-07-29T03:23:58;94649.72;;;19.45;100.00
6090;BME280;3073;42.660;23.316;2022-07-29T03:26:25;94652.69;;;18.92;100.00
6090;BME280;3073;42.660;23.316;2022-07-29T03:28:52;94663.50;;;18.62;100.00
6090;BME280;3073;42.660;23.316;2022-07-29T03:31:20;94657.91;;;18.74;100.00
6090;BME280;3073;42.660;23.316;2022-07-29T03:33:47;94660.13;;;18.62;100.00
6090;BME280;3073;42.660;23.316;2022-07-29T03:36:14;94658.69;;;18.56;100.00
6090;BME280;3073;42.660;23.316;2022-07-29T03:38:42;94661.97;;;18.61;100.00
6090;BME280;3073;42.660;23.316;2022-07-29T03:41:13;94655.69;;;18.67;100.00
6090;BME280;3073;42.660;23.316;2022-07-29T03:43:41;94662.53;;;18.58;100.00
6090;BME280;3073;42.660;23.316;2022-07-29T03:46:10;94662.34;;;18.55;100.00
6090;BME280;3073;42.660;23.316;2022-07-29T03:48:42;94662.78;;;18.75;100.00
6090;BME280;3073;42.660;23.316;2022-07-29T03:51:13;94667.63;;;18.95;100.00
6090;BME280;3073;42.660;23.316;2022-07-29T03:53:40;94659.31;;;18.98;100.00
6090;BME280;3073;42.660;23.316;2022-07-29T03:56:08;94666.88;;;19.09;100.00
6090;BME280;3073;42.660;23.316;2022-07-29T03:58:38;94665.00;;;19.14;100.00
6090;BME280;3073;42.660;23.316;2022-07-29T04:01:05;94666.06;;;19.27;100.00
6090;BME280;3073;42.660;23.316;2022-07-29T04:03:32;94675.28;;;19.33;100.00
6090;BME280;3073;42.660;23.316;2022-07-29T04:06:01;94671.00;;;19.42;100.00
6090;BME280;3073;42.660;23.316;2022-07-29T04:08:31;94673.72;;;19.50;100.00
6090;BME280;3073;42.660;23.316;2022-07-29T04:10:57;94671.88;;;19.51;100.00
6090;BME280;3073;42.660;23.316;2022-07-29T04:13:25;94671.78;;;19.56;100.00
6090;BME280;3073;42.660;23.316;2022-07-29T04:15:56;94672.16;;;19.63;100.00
6090;BME280;3073;42.660;23.316;2022-07-29T04:18:23;94675.22;;;19.65;100.00
6090;BME280;3073;42.660;23.316;2022-07-29T04:20:50;94665.25;;;19.72;100.00
6090;BME280;3073;42.660;23.316;2022-07-29T04:23:17;94661.81;;;19.77;100.00
6090;BME280;3073;42.660;23.316;2022-07-29T04:25:44;94669.75;;;19.94;100.00
6090;BME280;3073;42.660;23.316;2022-07-29T04:28:10;94663.50;;;19.95;100.00
6090;BME280;3073;42.660;23.316;2022-07-29T04:30:38;94665.81;;;19.96;100.00
6090;BME280;3073;42.660;23.316;2022-07-29T04:33:07;94671.78;;;19.97;100.00
6090;BME280;3073;42.660;23.316;2022-07-29T04:35:36;94665.72;;;20.01;100.00
6090;BME280;3073;42.660;23.316;2022-07-29T04:38:04;94679.34;;;19.93;100.00
6090;BME280;3073;42.660;23.316;2022-07-29T04:40:32;94672.22;;;20.13;100.00
6090;BME280;3073;42.660;23.316;2022-07-29T04:42:59;94677.78;;;20.20;100.00
6090;BME280;3073;42.660;23.316;2022-07-29T04:45:27;94686.91;;;20.31;100.00
6090;BME280;3073;42.660;23.316;2022-07-29T04:47:55;94682.16;;;20.46;100.00
6090;BME280;3073;42.660;23.316;2022-07-29T04:50:23;94683.16;;;20.59;100.00
6090;BME280;3073;42.660;23.316;2022-07-29T04:52:50;94679.28;;;20.70;100.00
6090;BME280;3073;42.660;23.316;2022-07-29T04:55:17;94685.38;;;20.88;100.00
6090;BME280;3073;42.660;23.316;2022-07-29T04:57:44;94694.50;;;21.08;100.00
6090;BME280;3073;42.660;23.316;2022-07-29T05:00:12;94693.16;;;21.10;100.00
6090;BME280;3073;42.660;23.316;2022-07-29T05:02:38;94691.72;;;21.26;100.00
6090;BME280;3073;42.660;23.316;2022-07-29T05:05:06;94689.91;;;21.27;100.00
6090;BME280;3073;42.660;23.316;2022-07-29T05:07:34;94692.72;;;21.39;100.00
6090;BME280;3073;42.660;23.316;2022-07-29T05:10:01;94695.44;;;21.12;100.00
6090;BME280;3073;42.660;23.316;2022-07-29T05:12:29;94696.63;;;21.28;100.00
6090;BME280;3073;42.660;23.316;2022-07-29T05:14:56;94690.84;;;21.31;100.00
6090;BME280;3073;42.660;23.316;2022-07-29T05:17:23;94696.22;;;21.34;100.00
6090;BME280;3073;42.660;23.316;2022-07-29T05:19:49;94696.59;;;21.50;100.00
6090;BME280;3073;42.660;23.316;2022-07-29T05:22:17;94697.88;;;21.61;100.00
6090;BME280;3073;42.660;23.316;2022-07-29T05:24:46;94696.31;;;21.60;100.00
6090;BME280;3073;42.660;23.316;2022-07-29T05:27:13;94700.06;;;21.45;100.00
6090;BME280;3073;42.660;23.316;2022-07-29T05:29:40;94703.06;;;21.61;100.00
6090;BME280;3073;42.660;23.316;2022-07-29T05:32:07;94696.66;;;21.67;100.00
6090;BME280;3073;42.660;23.316;2022-07-29T05:34:33;94697.78;;;21.83;100.00
6090;BME280;3073;42.660;23.316;2022-07-29T05:37:00;94696.81;;;21.71;100.00
6090;BME280;3073;42.660;23.316;2022-07-29T05:39:27;94697.22;;;21.55;100.00
6090;BME280;3073;42.660;23.316;2022-07-29T05:41:58;94695.91;;;21.75;100.00
6090;BME280;3073;42.660;23.316;2022-07-29T05:44:25;94700.22;;;21.88;100.00
6090;BME280;3073;42.660;23.316;2022-07-29T05:46:52;94699.84;;;22.03;100.00
6090;BME280;3073;42.660;23.316;2022-07-29T05:49:19;94701.75;;;22.37;100.00
6090;BME280;3073;42.660;23.316;2022-07-29T05:51:46;94707.13;;;22.49;100.00
6090;BME280;3073;42.660;23.316;2022-07-29T05:54:14;94702.72;;;22.67;100.00
6090;BME280;3073;42.660;23.316;2022-07-29T05:56:41;94711.88;;;23.07;100.00
6090;BME280;3073;42.660;23.316;2022-07-29T05:59:09;94711.63;;;23.55;100.00
6090;BME280;3073;42.660;23.316;2022-07-29T06:01:36;94711.41;;;24.07;100.00
6090;BME280;3073;42.660;23.316;2022-07-29T06:04:05;94709.25;;;24.59;100.00
6090;BME280;3073;42.660;23.316;2022-07-29T06:06:32;94717.03;;;25.42;100.00
6090;BME280;3073;42.660;23.316;2022-07-29T06:08:59;94716.13;;;25.71;100.00
6090;BME280;3073;42.660;23.316;2022-07-29T06:11:26;94710.44;;;26.41;100.00
6090;BME280;3073;42.660;23.316;2022-07-29T06:13:53;94718.31;;;26.29;100.00
6090;BME280;3073;42.660;23.316;2022-07-29T06:16:21;94716.78;;;26.80;100.00
6090;BME280;3073;42.660;23.316;2022-07-29T06:18:48;94726.25;;;27.68;100.00
6090;BME280;3073;42.660;23.316;2022-07-29T06:21:14;94725.56;;;27.28;100.00
6090;BME280;3073;42.660;23.316;2022-07-29T06:23:42;94724.78;;;27.11;100.00
6090;BME280;3073;42.660;23.316;2022-07-29T06:26:08;94717.66;;;27.55;100.00
6090;BME280;3073;42.660;23.316;2022-07-29T06:28:35;94720.25;;;28.15;100.00
6090;BME280;3073;42.660;23.316;2022-07-29T06:31:02;94719.25;;;28.92;96.45
6090;BME280;3073;42.660;23.316;2022-07-29T06:33:30;94721.53;;;28.40;90.62
6090;BME280;3073;42.660;23.316;2022-07-29T06:35:58;94721.69;;;28.47;89.20
6090;BME280;3073;42.660;23.316;2022-07-29T06:38:25;94709.16;;;27.15;98.08
6090;BME280;3073;42.660;23.316;2022-07-29T06:40:52;94716.25;;;26.75;100.00
6090;BME280;3073;42.660;23.316;2022-07-29T06:43:30;94712.47;;;26.60;100.00
6090;BME280;3073;42.660;23.316;2022-07-29T06:46:03;94711.63;;;26.44;100.00
6090;BME280;3073;42.660;23.316;2022-07-29T06:48:32;94708.25;;;26.43;100.00
6090;BME280;3073;42.660;23.316;2022-07-29T06:51:00;94710.59;;;27.72;100.00
6090;BME280;3073;42.660;23.316;2022-07-29T06:53:27;94709.97;;;28.25;100.00
6090;BME280;3073;42.660;23.316;2022-07-29T06:55:55;94705.53;;;28.64;96.97
6090;BME280;3073;42.660;23.316;2022-07-29T06:58:23;94716.69;;;28.96;93.79
6090;BME280;3073;42.660;23.316;2022-07-29T07:00:50;94715.72;;;29.23;95.87
6090;BME280;3073;42.660;23.316;2022-07-29T07:03:18;94699.69;;;29.51;90.42
6090;BME280;3073;42.660;23.316;2022-07-29T07:05:46;94704.25;;;29.54;85.68
6090;BME280;3073;42.660;23.316;2022-07-29T07:08:13;94702.44;;;29.16;89.57
6090;BME280;3073;42.660;23.316;2022-07-29T07:10:41;94697.97;;;28.43;91.64
6090;BME280;3073;42.660;23.316;2022-07-29T07:13:08;94701.25;;;28.56;93.23
6090;BME280;3073;42.660;23.316;2022-07-29T07:15:35;94700.91;;;28.23;95.03
6090;BME280;3073;42.660;23.316;2022-07-29T07:18:03;94705.69;;;28.52;94.75
6090;BME280;3073;42.660;23.316;2022-07-29T07:20:30;94698.84;;;29.89;89.10
6090;BME280;3073;42.660;23.316;2022-07-29T07:22:58;94708.72;;;29.95;83.26
6090;BME280;3073;42.660;23.316;2022-07-29T07:25:26;94698.94;;;29.28;87.10
6090;BME280;3073;42.660;23.316;2022-07-29T07:27:53;94700.22;;;30.58;82.55
6090;BME280;3073;42.660;23.316;2022-07-29T07:30:20;94701.88;;;31.03;79.49
6090;BME280;3073;42.660;23.316;2022-07-29T07:32:47;94697.53;;;30.54;79.09
6090;BME280;3073;42.660;23.316;2022-07-29T07:35:14;94697.63;;;31.65;71.65
6090;BME280;3073;42.660;23.316;2022-07-29T07:37:41;94701.59;;;31.89;65.16
6090;BME280;3073;42.660;23.316;2022-07-29T07:40:11;94703.03;;;30.46;71.41
6090;BME280;3073;42.660;23.316;2022-07-29T07:42:40;94691.81;;;29.74;76.11
6090;BME280;3073;42.660;23.316;2022-07-29T07:45:08;94690.59;;;29.90;76.71
6090;BME280;3073;42.660;23.316;2022-07-29T07:47:36;94700.13;;;30.25;74.43
6090;BME280;3073;42.660;23.316;2022-07-29T07:50:04;94699.97;;;30.70;75.03
6090;BME280;3073;42.660;23.316;2022-07-29T07:52:32;94698.84;;;31.01;69.79
6090;BME280;3073;42.660;23.316;2022-07-29T07:54:59;94694.31;;;31.35;66.50
6090;BME280;3073;42.660;23.316;2022-07-29T07:57:27;94693.88;;;30.36;70.64
6090;BME280;3073;42.660;23.316;2022-07-29T07:59:54;94699.50;;;30.61;69.76
6090;BME280;3073;42.660;23.316;2022-07-29T08:02:21;94696.41;;;30.85;67.69
6090;BME280;3073;42.660;23.316;2022-07-29T08:04:48;94691.38;;;31.06;62.18
6090;BME280;3073;42.660;23.316;2022-07-29T08:07:14;94695.16;;;31.42;64.40
6090;BME280;3073;42.660;23.316;2022-07-29T08:09:41;94693.13;;;31.29;60.37
6090;BME280;3073;42.660;23.316;2022-07-29T08:12:08;94693.28;;;30.20;66.52
6090;BME280;3073;42.660;23.316;2022-07-29T08:14:36;94688.72;;;30.17;70.56
6090;BME280;3073;42.660;23.316;2022-07-29T08:17:03;94691.28;;;30.99;65.24
6090;BME280;3073;42.660;23.316;2022-07-29T08:19:30;94695.09;;;31.79;63.52
6090;BME280;3073;42.660;23.316;2022-07-29T08:21:57;94696.78;;;32.01;60.89
6090;BME280;3073;42.660;23.316;2022-07-29T08:24:24;94692.00;;;31.70;60.03
6090;BME280;3073;42.660;23.316;2022-07-29T08:27:10;94696.34;;;32.54;59.31
6090;BME280;3073;42.660;23.316;2022-07-29T08:29:40;94691.75;;;33.30;54.18
6090;BME280;3073;42.660;23.316;2022-07-29T08:32:06;94690.22;;;32.36;55.02
6090;BME280;3073;42.660;23.316;2022-07-29T08:34:33;94698.63;;;31.97;55.57
6090;BME280;3073;42.660;23.316;2022-07-29T08:37:00;94692.25;;;32.63;53.72
6090;BME280;3073;42.660;23.316;2022-07-29T08:39:27;94693.63;;;33.23;52.22
6090;BME280;3073;42.660;23.316;2022-07-29T08:41:54;94689.91;;;33.52;49.54
6090;BME280;3073;42.660;23.316;2022-07-29T08:44:21;94689.50;;;33.60;49.24
6090;BME280;3073;42.660;23.316;2022-07-29T08:46:50;94683.88;;;33.62;47.38
6090;BME280;3073;42.660;23.316;2022-07-29T08:49:17;94691.25;;;32.93;47.95
6090;BME280;3073;42.660;23.316;2022-07-29T08:51:44;94689.75;;;32.95;51.11
6090;BME280;3073;42.660;23.316;2022-07-29T08:54:16;94678.59;;;33.73;47.27
6090;BME280;3073;42.660;23.316;2022-07-29T08:56:43;94683.88;;;34.19;45.52
6090;BME280;3073;42.660;23.316;2022-07-29T08:59:12;94695.94;;;34.30;46.31
6090;BME280;3073;42.660;23.316;2022-07-29T09:01:40;94680.59;;;32.68;49.34
6090;BME280;3073;42.660;23.316;2022-07-29T09:04:12;94683.03;;;31.38;52.20
6090;BME280;3073;42.660;23.316;2022-07-29T09:06:43;94667.94;;;30.08;56.79
6090;BME280;3073;42.660;23.316;2022-07-29T09:09:10;94667.94;;;29.86;61.93
6090;BME280;3073;42.660;23.316;2022-07-29T09:11:39;94669.53;;;29.90;63.66
6090;BME280;3073;42.660;23.316;2022-07-29T09:14:06;94666.56;;;30.18;63.60
6090;BME280;3073;42.660;23.316;2022-07-29T09:16:44;94662.69;;;29.86;58.72
6090;BME280;3073;42.660;23.316;2022-07-29T09:19:27;94670.94;;;30.96;57.51
6090;BME280;3073;42.660;23.316;2022-07-29T09:21:55;94669.75;;;32.19;53.22
6090;BME280;3073;42.660;23.316;2022-07-29T09:24:25;94671.25;;;32.95;52.02
6090;BME280;3073;42.660;23.316;2022-07-29T09:26:52;94670.22;;;34.24;46.18
6090;BME280;3073;42.660;23.316;2022-07-29T09:29:20;94665.63;;;34.49;45.48
6090;BME280;3073;42.660;23.316;2022-07-29T09:31:49;94667.50;;;34.45;45.03
6090;BME280;3073;42.660;23.316;2022-07-29T09:34:20;94670.28;;;35.73;42.89
6090;BME280;3073;42.660;23.316;2022-07-29T09:36:50;94660.13;;;36.05;40.24
6090;BME280;3073;42.660;23.316;2022-07-29T09:39:27;94663.22;;;35.96;40.54
6090;BME280;3073;42.660;23.316;2022-07-29T09:41:56;94664.41;;;35.44;39.34
6090;BME280;3073;42.660;23.316;2022-07-29T09:44:24;94658.09;;;35.79;40.28
6090;BME280;3073;42.660;23.316;2022-07-29T09:46:59;94661.28;;;36.79;39.13
6090;BME280;3073;42.660;23.316;2022-07-29T09:49:31;94661.47;;;36.61;39.29
6090;BME280;3073;42.660;23.316;2022-07-29T09:52:07;94653.53;;;35.28;40.17
6090;BME280;3073;42.660;23.316;2022-07-29T09:54:35;94649.47;;;33.73;42.72
6090;BME280;3073;42.660;23.316;2022-07-29T09:57:07;94646.81;;;33.62;43.67
6090;BME280;3073;42.660;23.316;2022-07-29T09:59:38;94648.25;;;33.21;45.13
6090;BME280;3073;42.660;23.316;2022-07-29T10:02:11;94643.94;;;32.63;47.07
6090;BME280;3073;42.660;23.316;2022-07-29T10:04:40;94641.25;;;31.91;49.22
6090;BME280;3073;42.660;23.316;2022-07-29T10:07:09;94638.59;;;31.43;50.47
6090;BME280;3073;42.660;23.316;2022-07-29T10:09:36;94632.66;;;32.80;50.52
6090;BME280;3073;42.660;23.316;2022-07-29T10:12:08;94633.84;;;33.00;49.10
6090;BME280;3073;42.660;23.316;2022-07-29T10:14:36;94630.47;;;34.20;45.66
6090;BME280;3073;42.660;23.316;2022-07-29T10:17:05;94630.28;;;35.46;42.27
6090;BME280;3073;42.660;23.316;2022-07-29T10:19:33;94622.91;;;35.09;43.69
6090;BME280;3073;42.660;23.316;2022-07-29T10:22:05;94622.28;;;35.94;41.47
6090;BME280;3073;42.660;23.316;2022-07-29T10:24:34;94620.41;;;36.92;41.06
6090;BME280;3073;42.660;23.316;2022-07-29T10:27:04;94615.75;;;37.27;38.30
6090;BME280;3073;42.660;23.316;2022-07-29T10:29:31;94618.31;;;36.12;39.23
6090;BME280;3073;42.660;23.316;2022-07-29T10:32:25;94604.19;;;35.82;40.25
6090;BME280;3073;42.660;23.316;2022-07-29T10:35:19;94600.94;;;35.08;40.20
6090;BME280;3073;42.660;23.316;2022-07-29T10:38:10;94604.50;;;35.43;40.85
6090;BME280;3073;42.660;23.316;2022-07-29T10:40:48;94597.16;;;36.02;39.22
6090;BME280;3073;42.660;23.316;2022-07-29T10:43:40;94598.22;;;36.76;39.48
6090;BME280;3073;42.660;23.316;2022-07-29T10:46:09;94598.91;;;35.78;40.11
6090;BME280;3073;42.660;23.316;2022-07-29T10:49:04;94595.25;;;37.50;39.24
6090;BME280;3073;42.660;23.316;2022-07-29T10:51:56;94595.06;;;36.54;39.15
6090;BME280;3073;42.660;23.316;2022-07-29T10:54:37;94591.19;;;34.91;41.36
6090;BME280;3073;42.660;23.316;2022-07-29T10:57:14;94579.78;;;34.98;41.53
6090;BME280;3073;42.660;23.316;2022-07-29T10:59:42;94579.50;;;36.22;40.62
6090;BME280;3073;42.660;23.316;2022-07-29T11:02:42;94578.72;;;35.84;38.71
6090;BME280;3073;42.660;23.316;2022-07-29T11:05:11;94571.25;;;35.24;40.15
6090;BME280;3073;42.660;23.316;2022-07-29T11:07:39;94569.91;;;34.98;40.91
6090;BME280;3073;42.660;23.316;2022-07-29T11:10:21;94574.88;;;34.02;41.80
6090;BME280;3073;42.660;23.316;2022-07-29T11:12:50;94568.56;;;34.73;40.84
6090;BME280;3073;42.660;23.316;2022-07-29T11:15:19;94565.38;;;35.47;40.38
6090;BME280;3073;42.660;23.316;2022-07-29T11:18:06;94566.16;;;36.86;38.69
6090;BME280;3073;42.660;23.316;2022-07-29T11:20:35;94571.81;;;36.88;38.57
6090;BME280;3073;42.660;23.316;2022-07-29T11:23:18;94564.41;;;35.27;39.55
6090;BME280;3073;42.660;23.316;2022-07-29T11:25:46;94557.50;;;34.85;39.64
6090;BME280;3073;42.660;23.316;2022-07-29T11:28:36;94559.66;;;35.52;39.63
6090;BME280;3073;42.660;23.316;2022-07-29T11:31:07;94557.91;;;36.47;37.96
6090;BME280;3073;42.660;23.316;2022-07-29T11:33:36;94555.94;;;35.83;37.76
6090;BME280;3073;42.660;23.316;2022-07-29T11:36:09;94561.56;;;34.96;39.16
6090;BME280;3073;42.660;23.316;2022-07-29T11:38:39;94561.72;;;34.75;39.16
6090;BME280;3073;42.660;23.316;2022-07-29T11:41:22;94550.38;;;33.49;41.54
6090;BME280;3073;42.660;23.316;2022-07-29T11:43:52;94548.09;;;33.44;41.51
6090;BME280;3073;42.660;23.316;2022-07-29T11:46:46;94554.91;;;33.55;40.81
6090;BME280;3073;42.660;23.316;2022-07-29T11:49:19;94539.41;;;33.68;42.44
6090;BME280;3073;42.660;23.316;2022-07-29T11:51:50;94538.63;;;32.86;42.45
6090;BME280;3073;42.660;23.316;2022-07-29T11:54:24;94545.78;;;32.89;42.66
6090;BME280;3073;42.660;23.316;2022-07-29T11:56:52;94547.56;;;32.43;42.91
6090;BME280;3073;42.660;23.316;2022-07-29T11:59:21;94541.28;;;33.43;42.39
6090;BME280;3073;42.660;23.316;2022-07-29T12:01:54;94539.47;;;34.55;39.78
6090;BME280;3073;42.660;23.316;2022-07-29T12:04:23;94537.69;;;35.00;38.79
6090;BME280;3073;42.660;23.316;2022-07-29T12:06:50;94539.69;;;34.12;39.73
6090;BME280;3073;42.660;23.316;2022-07-29T12:09:18;94542.72;;;34.84;39.67
6090;BME280;3073;42.660;23.316;2022-07-29T12:11:45;94535.94;;;35.75;38.28
6090;BME280;3073;42.660;23.316;2022-07-29T12:14:26;94536.81;;;35.99;36.72
6090;BME280;3073;42.660;23.316;2022-07-29T12:16:53;94533.22;;;36.46;37.17
6090;BME280;3073;42.660;23.316;2022-07-29T12:19:20;94533.84;;;35.56;37.61
6090;BME280;3073;42.660;23.316;2022-07-29T12:21:48;94542.53;;;35.97;36.01
6090;BME280;3073;42.660;23.316;2022-07-29T12:24:16;94541.44;;;35.54;36.84
6090;BME280;3073;42.660;23.316;2022-07-29T12:26:49;94541.25;;;35.75;37.25
6090;BME280;3073;42.660;23.316;2022-07-29T12:29:16;94536.06;;;35.98;36.92
6090;BME280;3073;42.660;23.316;2022-07-29T12:31:45;94529.44;;;36.13;36.63
6090;BME280;3073;42.660;23.316;2022-07-29T12:34:13;94528.69;;;35.38;37.06
6090;BME280;3073;42.660;23.316;2022-07-29T12:36:42;94524.22;;;34.73;38.00
6090;BME280;3073;42.660;23.316;2022-07-29T12:39:10;94529.13;;;33.88;39.76
6090;BME280;3073;42.660;23.316;2022-07-29T12:41:38;94528.91;;;35.06;38.37
6090;BME280;3073;42.660;23.316;2022-07-29T12:44:05;94526.63;;;35.08;38.67
6090;BME280;3073;42.660;23.316;2022-07-29T12:46:32;94521.13;;;34.85;38.32
6090;BME280;3073;42.660;23.316;2022-07-29T12:49:00;94533.94;;;34.25;38.20
6090;BME280;3073;42.660;23.316;2022-07-29T12:51:31;94520.88;;;33.43;39.27
6090;BME280;3073;42.660;23.316;2022-07-29T12:54:07;94511.06;;;34.55;38.18
6090;BME280;3073;42.660;23.316;2022-07-29T12:56:36;94515.72;;;34.34;38.10
6090;BME280;3073;42.660;23.316;2022-07-29T12:59:11;94507.69;;;34.51;37.49
6090;BME280;3073;42.660;23.316;2022-07-29T13:01:39;94499.16;;;34.08;38.75
6090;BME280;3073;42.660;23.316;2022-07-29T13:04:07;94500.81;;;33.63;39.21
6090;BME280;3073;42.660;23.316;2022-07-29T13:06:37;94500.06;;;33.67;39.17
6090;BME280;3073;42.660;23.316;2022-07-29T13:09:08;94509.19;;;33.27;39.44
6090;BME280;3073;42.660;23.316;2022-07-29T13:11:38;94497.81;;;33.51;39.00
6090;BME280;3073;42.660;23.316;2022-07-29T13:14:07;94499.19;;;34.01;38.45
6090;BME280;3073;42.660;23.316;2022-07-29T13:16:35;94496.91;;;34.00;38.43
6090;BME280;3073;42.660;23.316;2022-07-29T13:19:09;94480.91;;;34.32;37.51
6090;BME280;3073;42.660;23.316;2022-07-29T13:21:37;94484.84;;;33.92;39.60
6090;BME280;3073;42.660;23.316;2022-07-29T13:24:07;94482.69;;;33.66;40.03